Islesboro, Maine
Current Conditions -  °F | °C
As of 8:35 PM on Wednesday 22 Oct 2014 (Local Time) from KRKD Reporting Station
Overcast Overcast  
Wind Chill: 40°   Ceiling: 1000
Heat Index: 48°   Visibility: 10mi
Dew Point: 45°   Wind: 26mph
Humidity: 87%   Direction: 30°NNE
Pressure: 30.04"   Gusts: 35mph
Location:  44.31°N, 68.9°W
Report Text: KRKD 230035Z AUTO 03023G30KT 10SM OVC010 09/07 A3004 RMK AO1
Loading
Personal Weather Stations






























Interactive Weather Map
Tropical Storm Tracking
New forecast layout! Learn more

10-Day Weather Forecast

Advertisements
Track Severe Weather on mobile